• Join FlightAware (Why Join?)
  • Login
  • US Flag 
12:12AM EDT


 

Airport Tracker/Info


-or-


 

Live Flight TrackerFlight Track Log ✈ KAP550 ✈ 28-Aug-2013 ✈ KALB - KMSS

Flight Track Log - Related Links

Times and Time Zones

All times are in EDT time to prevent confusion due to time zone crossing. See the KAP550 flight status page for this flight to view local times or setup timezone preferences in your user account.

Time Position Orientation Groundspeed Altitude Reporting Facility
EDT Latitude Longitude Course Direction KTS MPH feet Rate Location/Type
02:36PM 43.1278 -74.1328 331° Northwest 151 174 7,900  Level Boston Center
02:37PM 43.1628 -74.1594 331° Northwest 151 174 8,400 540 Climbing Boston Center
02:38PM 43.1978 -74.1831 334° Northwest 140 161 9,100 660 Climbing Boston Center
02:39PM 43.2328 -74.2097 331° Northwest 140 161 9,800 720 Climbing Boston Center
02:40PM 43.2700 -74.2364 332° Northwest 146 168 10,600 360 Climbing Boston Center
02:41PM 43.3133 -74.2636 335° Northwest 156 180 10,600 60 Level Boston Center
02:42PM 43.3544 -74.2933 332° Northwest 162 186 10,800 240 Climbing Boston Center
02:43PM 43.3917 -74.3172 335° Northwest 162 186 11,100 300 Climbing Boston Center
02:44PM 43.4372 -74.3300 348° North 162 186 11,500 240 Climbing Boston Center
02:45PM 43.4850 -74.3403 351° North 162 186 11,600  Climbing Boston Center
02:46PM 43.5328 -74.3561 346° North 168 193 11,600  Level Boston Center
02:47PM 43.5803 -74.3689 349° North 173 199 11,600  Level Boston Center
02:48PM 43.6256 -74.4019 332° Northwest 173 199 11,600  Level Boston Center
02:49PM 43.6711 -74.4322 334° Northwest 178 205 11,600  Level Boston Center
02:50PM 43.7161 -74.4681 330° Northwest 178 205 11,600  Level Boston Center
02:51PM 43.7594 -74.4983 333° Northwest 178 205 11,600  Level Boston Center
02:52PM 43.8047 -74.5314 332° Northwest 178 205 11,600  Level Boston Center
02:53PM 43.8500 -74.5589 336° Northwest 178 205 11,600  Level Boston Center
02:54PM 43.8953 -74.5894 334° Northwest 178 205 11,600  Level Boston Center
02:55PM 43.9450 -74.6056 347° North 178 205 11,600  Level Boston Center
02:56PM 43.9906 -74.6189 348° North 173 199 11,600  Level Boston Center
02:57PM 44.0383 -74.6350 346° North 173 199 11,600  Level Boston Center
02:58PM 44.0881 -74.6456 351° North 173 199 11,600 -120 Level Boston Center
02:59PM 44.1378 -74.6589 349° North 173 199 11,400 -540 Descending Boston Center
03:00PM 44.1917 -74.6753 348° North 185 213 10,600 -840 Descending Boston Center
03:01PM 44.2475 -74.7006 342° North 196 226 9,800 -780 Descending Boston Center
03:02PM 44.3033 -74.7203 346° North 201 231 9,100 -780 Descending Boston Center
03:03PM 44.3614 -74.7342 350° North 201 231 8,300 -840 Descending Boston Center
03:04PM 44.4175 -74.7478 350° North 201 231 7,500 -780 Descending Boston Center
03:05PM 44.4756 -74.7589 352° North 201 231 6,800 -660 Descending Boston Center
03:06PM 44.5336 -74.7728 350° North 201 231 6,200 -600 Descending Boston Center
03:07PM 44.5878 -74.7778 356° North 201 231 5,600 -900 Descending Boston Center
03:08PM 44.6458 -74.7919 350° North 201 231 4,500 -1,200 Descending Boston Center